Webster, Kentucky
Current Conditions -  °F | °C
As of 6:58 AM on Sunday 21 Dec 2014 (Local Time) from KFTK Reporting Station
Haze Haze  
Wind Chill: 18°   Ceiling: Unl
Heat Index: 24°   Visibility: 6mi
Dew Point: 22°   Wind: 5mph
Humidity: 92%   Direction: 40°NE
Pressure: 30.27"   Gusts: NA
Location:  37.89°N, 86.34°W
Report Text: KFTK 211258Z AUTO 04004KT 6SM BR CLR M04/M06 A3027 RMK AO2 SLP263 T10451056
Loading
Personal Weather Stations






























Interactive Weather Map New forecast layout! Learn more

10-Day Weather Forecast

Advertisements
Track Severe Weather on mobile